Flight Track Log - Related Links

Times and Time Zones

All times are in EDT time to prevent confusion due to time zone crossing. See the BJS442 flight status page for this flight to view local times or setup timezone preferences in your user account.

Time Position Orientation Groundspeed Altitude Reporting Facility
EDT Latitude Longitude Course Direction KTS MPH feet Rate Location/Type
Mon 07:11:10 PM 30.1539 -97.6047 47° Northeast 229 264 5,900  Level Fort Worth Center
Mon 07:12:12 PM 30.1953 -97.5183 61° Northeast 247 284 11,000 2,882 Climbing Fort Worth Center
Mon 07:13:17 PM 30.2689 -97.4469 40° Northeast 350 403 12,000 709 Climbing Houston Center
Mon 07:14:19 PM 30.3672 -97.4014 22° Northeast 376 433 12,500 1,872 Climbing Houston Center
Mon 07:15:00 PM 30.4855 -97.3836 45° Northeast  Level FlightAware Approximate
Mon 07:15:22 PM 30.4681 -97.3497 24° Northeast 392 451 15,900  Level Houston Center
Mon 07:16:00 PM 30.5400 -97.3167 47° Northeast  Level FlightAware Approximate
Mon 07:16:24 PM 30.6000 -97.2728 27° Northeast 442 509 20,000  Level Houston Center
Mon 07:17:26 PM 30.6869 -97.1625 47° Northeast 465 535 22,000 968 Climbing Houston Center
Mon 07:18:28 PM 30.7800 -97.0511 46° Northeast 481 554 22,000  Level Houston Center
Mon 07:19:30 PM 30.8744 -96.9372 46° Northeast 494 568 22,000  Level Houston Center
Mon 07:20:32 PM 30.9817 -96.8067 46° Northeast 472 543 22,000  Level Houston Center
Mon 07:21:34 PM 31.0700 -96.7011 46° Northeast 462 532 22,000  Level Houston Center
Mon 07:22:36 PM 31.1603 -96.6033 43° Northeast 459 528 22,000  Level Houston Center
Mon 07:23:39 PM 31.2797 -96.5547 19° North 460 529 22,000  Level Houston Center
Mon 07:24:37 PM 31.3894 -96.5156 17° North 424 488 22,000 -50 Level Fort Worth Center
Mon 07:25:39 PM 31.4969 -96.4753 18° North 412 474 21,900 -339 Descending Fort Worth Center
Mon 07:26:41 PM 31.6006 -96.4369 17° North 396 456 21,300 -1,008 Descending Fort Worth Center
Mon 07:27:44 PM 31.7158 -96.3936 18° North 407 468 19,800 -1,440 Descending Fort Worth Center
Mon 07:28:46 PM 31.8294 -96.3517 17° North 423 487 18,300 -1,548 Descending Fort Worth Center
Mon 07:29:48 PM 31.9619 -96.3011 18° North 420 483 16,600 -1,548 Descending Fort Worth Center
Mon 07:30:50 PM 32.0642 -96.2628 18° North 391 450 15,100 -968 Descending Fort Worth Center
Mon 07:31:52 PM 32.1619 -96.2514 North 365 420 14,600 -1,306 Descending Fort Worth Center
Mon 07:32:54 PM 32.2606 -96.2914 341° North 346 398 12,400 -2,129 Descending Fort Worth Center
Mon 07:33:56 PM 32.3525 -96.3317 340° North 330 380 10,200 -1,645 Descending Fort Worth Center
Mon 07:34:58 PM 32.4261 -96.3633 340° North 284 327 9,000 -774 Descending Fort Worth Center
Mon 07:36:00 PM 32.5017 -96.3839 347° North 261 300 8,600 -624 Descending Fort Worth Center
Mon 07:37:03 PM 32.5681 -96.4186 336° Northwest 261 300 7,700 -912 Descending Fort Worth Center
Mon 07:38:05 PM 32.6356 -96.4606 332° Northwest 257 296 6,700 -1,161 Descending Fort Worth Center
Mon 07:39:07 PM 32.6881 -96.5183 317° Northwest 256 295 5,300 -823 Descending Fort Worth Center
Mon 07:40:09 PM 32.7339 -96.5914 307° West 255 293 5,000 -145 Descending Fort Worth Center
Mon 07:41:11 PM 32.7767 -96.6561 308° West 252 290 5,000  Level Fort Worth Center
Mon 07:42:13 PM 32.8197 -96.7217 308° West 252 290 5,000  Level Fort Worth Center
Mon 07:43:15 PM 32.8728 -96.7850 315° West 252 290 5,000  Level Fort Worth Center
Mon 07:44:17 PM 32.8928 -96.8697 286° West 254 292 5,000  Level Fort Worth Center
Mon 07:45:20 PM 32.8989 -96.9550 275° West 256 295 5,000 -432 Level Fort Worth Center
Mon 07:46:22 PM 32.9031 -97.0453 273° West 256 295 4,100 -581 Descending Fort Worth Center
Mon 07:47:24 PM 32.8892 -97.1269 259° West 257 296 3,800 -532 Descending Fort Worth Center
Mon 07:48:26 PM 32.8556 -97.2039 243° Southwest 261 300 3,000 -435 Descending Fort Worth Center
Mon 07:49:28 PM 32.8183 -97.2836 241° Southwest 257 296 2,900 -484 Descending Fort Worth Center
Mon 07:50:30 PM 32.7897 -97.3278 232° Southwest 157 181 2,000 -1,016 Descending Fort Worth Center
Mon 07:51:32 PM 32.8083 -97.3600 305° West 120 138 800 -1,161 Descending Fort Worth Center
Mon 07:53:00 PM 32.8167 -97.3500 248° West  Level FlightAware Approximate
Mon 08:00:00 PM 32.8193 -97.3617 248° West  Level Estimated

Login

Don't have an account? Register now (free) for customized features, flight alerts, and more!